Roper, Kansas
Current Conditions -  °F | °C
As of 3:52 AM on Sunday 26 Oct 2014 (Local Time) from KCNU Reporting Station
Clear Clear  
Wind Chill: 61°   Ceiling: Unl
Heat Index: 61°   Visibility: 8mi
Dew Point: 60°   Wind: 8mph
Humidity: 97%   Direction: 160°SSE
Pressure: 29.94"   Gusts: NA
Location:  37.634°N, 95.6326°W
Report Text: KCNU 260852Z AUTO 16007KT 8SM CLR 16/16 A2994 RMK AO2 SLP129 T01610156 58006
Loading
Personal Weather Stations






























Interactive Weather Map
Tropical Storm Tracking
New forecast layout! Learn more

10-Day Weather Forecast

Advertisements
Track Severe Weather on mobile